createdAt,value
2022-11-20T00:02:15.593Z,31.97
2022-11-20T00:04:44.044Z,31.87
2022-11-20T00:07:11.945Z,33.17
2022-11-20T00:09:39.811Z,30.23
2022-11-20T00:12:07.710Z,31.20
2022-11-20T00:14:35.581Z,34.60
2022-11-20T00:17:03.490Z,32.83
2022-11-20T00:19:32.704Z,35.03
2022-11-20T00:22:00.645Z,37.97
2022-11-20T00:24:28.438Z,35.07
2022-11-20T00:26:56.243Z,32.73
2022-11-20T00:29:24.096Z,33.23
2022-11-20T00:31:52.038Z,33.93
2022-11-20T00:34:19.805Z,37.70
2022-11-20T00:36:49.036Z,34.27
2022-11-20T00:39:16.880Z,33.43
2022-11-20T00:41:44.768Z,34.90
2022-11-20T00:44:12.675Z,34.80
2022-11-20T00:46:40.501Z,37.67
2022-11-20T00:49:08.462Z,35.23
2022-11-20T00:51:36.429Z,36.53
2022-11-20T00:54:05.728Z,33.90
2022-11-20T00:56:33.580Z,38.83
2022-11-20T00:59:02.284Z,33.10
2022-11-20T01:01:31.088Z,39.07
2022-11-20T01:04:00.564Z,38.80
2022-11-20T01:06:29.762Z,34.10
2022-11-20T01:08:59.565Z,34.83
2022-11-20T01:11:30.520Z,31.70
2022-11-20T01:13:59.709Z,33.17
2022-11-20T01:16:29.576Z,32.40
2022-11-20T01:18:59.326Z,33.47
2022-11-20T01:21:29.447Z,32.03
2022-11-20T01:23:57.433Z,32.80
2022-11-20T01:26:28.724Z,30.07
2022-11-20T01:28:57.060Z,27.87
2022-11-20T01:31:26.496Z,30.03
2022-11-20T01:33:56.061Z,28.43
2022-11-20T01:36:25.686Z,29.47
2022-11-20T01:38:54.444Z,29.57
2022-11-20T01:41:40.327Z,25.90
2022-11-20T01:44:10.837Z,32.37
2022-11-20T01:46:39.496Z,29.30
2022-11-20T01:49:11.263Z,31.13
2022-11-20T01:51:42.979Z,33.83
2022-11-20T01:54:14.001Z,29.97
2022-11-20T01:56:44.309Z,32.37
2022-11-20T01:59:16.768Z,27.73
2022-11-20T02:01:44.694Z,29.73
2022-11-20T02:04:12.808Z,25.00
2022-11-20T02:06:44.549Z,26.77
2022-11-20T02:09:12.662Z,23.07
2022-11-20T02:11:40.513Z,23.50
2022-11-20T02:14:07.543Z,25.47
2022-11-20T02:16:39.267Z,23.77
2022-11-20T02:19:12.094Z,24.33
2022-11-20T02:21:44.060Z,23.10
2022-11-20T02:24:15.061Z,24.73
2022-11-20T02:26:48.740Z,22.00
2022-11-20T02:29:19.284Z,23.70
2022-11-20T02:31:47.458Z,24.97
2022-11-20T02:34:15.272Z,24.83
2022-11-20T02:36:44.023Z,21.77
2022-11-20T02:39:14.000Z,22.77
2022-11-20T02:41:41.900Z,25.10
2022-11-20T02:44:09.809Z,22.37
2022-11-20T02:46:37.647Z,24.27
2022-11-20T02:49:06.141Z,22.30
2022-11-20T02:51:34.483Z,25.50
2022-11-20T02:54:02.406Z,23.57
2022-11-20T02:56:31.672Z,22.60
2022-11-20T02:58:59.516Z,23.17
2022-11-20T03:01:27.482Z,24.87
2022-11-20T03:03:55.818Z,22.30
2022-11-20T03:06:23.809Z,21.97
2022-11-20T03:08:51.693Z,24.33
2022-11-20T03:11:19.920Z,27.03
2022-11-20T03:13:49.146Z,24.60
2022-11-20T03:16:19.515Z,25.10
2022-11-20T03:18:47.592Z,22.77
2022-11-20T03:21:16.212Z,22.63
2022-11-20T03:23:44.266Z,21.47
2022-11-20T03:26:14.080Z,22.47
2022-11-20T03:28:42.088Z,20.63
2022-11-20T03:31:13.063Z,18.70
2022-11-20T03:33:41.793Z,20.90
2022-11-20T03:36:11.675Z,19.77
2022-11-20T03:38:39.615Z,20.23
2022-11-20T03:41:09.587Z,20.37
2022-11-20T03:43:37.736Z,21.50
2022-11-20T03:46:06.216Z,18.47
2022-11-20T03:48:35.740Z,19.13
2022-11-20T03:51:11.569Z,18.83
2022-11-20T03:53:39.508Z,19.47
2022-11-20T03:56:08.407Z,18.90
2022-11-20T03:58:37.082Z,20.23
2022-11-20T04:01:09.024Z,17.93
2022-11-20T04:03:38.888Z,18.43
2022-11-20T04:06:08.595Z,17.00
2022-11-20T04:08:36.883Z,16.47
2022-11-20T04:11:16.455Z,18.87
2022-11-20T04:13:47.988Z,19.47
2022-11-20T04:16:16.292Z,19.40
2022-11-20T04:18:45.675Z,22.13
2022-11-20T04:21:13.926Z,17.73
2022-11-20T04:23:41.794Z,18.43
2022-11-20T04:26:11.565Z,21.27
2022-11-20T04:28:40.082Z,19.53
2022-11-20T04:31:09.218Z,18.93
2022-11-20T04:33:37.773Z,18.00
2022-11-20T04:36:08.953Z,15.57
2022-11-20T04:38:36.849Z,18.40
2022-11-20T04:41:07.567Z,16.63
2022-11-20T04:43:35.812Z,16.63
2022-11-20T04:46:03.961Z,18.33
2022-11-20T04:48:31.985Z,17.57
2022-11-20T04:50:59.988Z,17.43
2022-11-20T04:53:29.181Z,17.27
2022-11-20T04:56:01.882Z,17.03
2022-11-20T04:58:29.842Z,16.23
2022-11-20T05:01:03.153Z,15.03
2022-11-20T05:03:31.076Z,16.00
2022-11-20T05:05:58.906Z,22.07
2022-11-20T05:08:26.736Z,15.53
2022-11-20T05:10:55.961Z,17.40
2022-11-20T05:13:23.768Z,18.37
2022-11-20T05:15:51.654Z,19.50
2022-11-20T05:18:19.545Z,16.33
2022-11-20T05:20:47.360Z,13.93
2022-11-20T05:23:15.217Z,14.27
2022-11-20T05:25:43.043Z,15.37
2022-11-20T05:28:12.308Z,15.33
2022-11-20T05:30:40.134Z,14.17
2022-11-20T05:33:07.965Z,17.20
2022-11-20T05:35:35.838Z,14.83
2022-11-20T05:38:03.709Z,15.33
2022-11-20T05:40:31.613Z,19.23
2022-11-20T05:42:59.435Z,13.77
2022-11-20T05:45:28.715Z,15.10
2022-11-20T05:48:00.109Z,15.53
2022-11-20T05:50:28.345Z,16.20
2022-11-20T05:52:56.242Z,17.53
2022-11-20T05:55:24.109Z,16.47
2022-11-20T05:57:51.934Z,14.73
2022-11-20T06:00:20.233Z,15.50
2022-11-20T06:02:49.473Z,15.63
2022-11-20T06:05:17.522Z,14.90
2022-11-20T06:07:45.421Z,14.83
2022-11-20T06:10:13.643Z,15.60
2022-11-20T06:12:41.426Z,15.47
2022-11-20T06:15:10.370Z,15.10
2022-11-20T06:17:38.199Z,15.50
2022-11-20T06:20:08.820Z,14.20
2022-11-20T06:22:36.663Z,14.60
2022-11-20T06:25:04.914Z,15.80
2022-11-20T06:27:32.768Z,16.77
2022-11-20T06:30:00.573Z,16.20
2022-11-20T06:32:28.533Z,16.10
2022-11-20T06:34:56.334Z,18.13
2022-11-20T06:37:25.597Z,14.67
2022-11-20T06:39:53.424Z,17.20
2022-11-20T06:42:21.296Z,16.03
2022-11-20T06:44:49.165Z,17.77
2022-11-20T06:47:17.023Z,16.80
2022-11-20T06:49:44.878Z,16.50
2022-11-20T06:52:12.713Z,16.53
2022-11-20T06:54:42.100Z,15.87
2022-11-20T06:57:10.083Z,18.03
2022-11-20T06:59:37.936Z,17.00
2022-11-20T07:02:05.810Z,15.40
2022-11-20T07:04:33.798Z,17.00
2022-11-20T07:07:01.792Z,16.87
2022-11-20T07:09:29.736Z,18.03
2022-11-20T07:11:58.937Z,16.57
2022-11-20T07:14:26.851Z,18.70
2022-11-20T07:16:54.689Z,15.73
2022-11-20T07:19:22.718Z,16.60
2022-11-20T07:21:50.741Z,17.20
2022-11-20T07:24:18.556Z,19.73
2022-11-20T07:26:48.312Z,15.97
2022-11-20T07:29:17.655Z,19.53
2022-11-20T07:31:45.639Z,18.83
2022-11-20T07:34:13.575Z,18.57
2022-11-20T07:36:41.671Z,17.57
2022-11-20T07:39:09.607Z,19.00
2022-11-20T07:41:37.423Z,17.20
2022-11-20T07:44:05.698Z,15.37
2022-11-20T07:46:34.945Z,16.67
2022-11-20T07:49:02.782Z,18.27
2022-11-20T07:51:30.636Z,16.93
2022-11-20T07:53:58.593Z,17.77
2022-11-20T07:56:26.864Z,22.73
2022-11-20T07:58:54.751Z,26.17
2022-11-20T08:01:23.158Z,28.27
2022-11-20T08:03:52.596Z,24.23
2022-11-20T08:06:21.063Z,24.17
2022-11-20T08:08:48.789Z,26.40
2022-11-20T08:11:45.797Z,22.50
2022-11-20T08:14:14.019Z,22.33
2022-11-20T08:16:41.965Z,22.40
2022-11-20T08:19:11.648Z,24.77
2022-11-20T08:21:39.479Z,23.53
2022-11-20T08:24:08.618Z,23.17
2022-11-20T08:26:36.552Z,22.13
2022-11-20T08:29:05.338Z,17.97
2022-11-20T08:31:33.911Z,19.83
2022-11-20T08:34:04.947Z,17.90
2022-11-20T08:36:37.332Z,22.57
2022-11-20T08:39:05.664Z,18.10
2022-11-20T08:41:34.361Z,14.47
2022-11-20T08:44:05.039Z,18.97
2022-11-20T08:46:36.341Z,22.47
2022-11-20T08:49:04.332Z,20.53
2022-11-20T08:51:32.708Z,18.90
2022-11-20T08:54:02.211Z,21.37
2022-11-20T08:56:30.100Z,20.10
2022-11-20T09:01:46.376Z,23.97
2022-11-20T09:04:15.331Z,20.77
2022-11-20T09:06:43.618Z,18.87
2022-11-20T09:09:12.992Z,17.40
2022-11-20T09:11:40.732Z,17.40
2022-11-20T09:14:08.640Z,17.03
2022-11-20T09:16:36.535Z,16.47
2022-11-20T09:21:56.899Z,14.30
2022-11-20T09:24:28.872Z,14.33
2022-11-20T09:26:56.643Z,13.77
2022-11-20T09:29:24.490Z,11.37
2022-11-20T09:31:52.247Z,12.93
2022-11-20T09:34:20.021Z,13.53
2022-11-20T09:36:47.866Z,13.97
2022-11-20T09:39:15.683Z,15.73
2022-11-20T09:41:57.337Z,13.13
2022-11-20T09:44:39.549Z,13.63
2022-11-20T09:47:10.654Z,14.37
2022-11-20T09:49:57.349Z,16.53
2022-11-20T09:52:34.281Z,13.47
2022-11-20T09:55:03.960Z,14.77
2022-11-20T09:57:37.725Z,13.33
2022-11-20T10:00:12.036Z,12.30
2022-11-20T10:02:43.358Z,11.97
2022-11-20T10:05:15.627Z,11.03
2022-11-20T10:07:46.705Z,11.37
2022-11-20T10:10:28.405Z,14.23
2022-11-20T10:13:07.909Z,14.77
2022-11-20T10:15:42.557Z,15.00
2022-11-20T10:18:18.583Z,16.27
2022-11-20T10:20:50.310Z,15.00
2022-11-20T10:23:37.783Z,12.90
2022-11-20T10:26:08.368Z,12.67
2022-11-20T10:28:55.526Z,14.77
2022-11-20T10:31:32.363Z,15.77
2022-11-20T10:34:12.022Z,16.20
2022-11-20T10:36:43.377Z,10.33
2022-11-20T10:39:19.067Z,11.20
2022-11-20T10:41:49.419Z,11.97
2022-11-20T10:44:41.974Z,13.63
2022-11-20T10:47:25.245Z,15.37
2022-11-20T10:49:55.025Z,12.23
2022-11-20T10:52:29.751Z,10.47
2022-11-20T10:55:03.207Z,13.37
2022-11-20T10:57:49.131Z,12.87
2022-11-20T11:00:18.977Z,11.13
2022-11-20T11:02:49.780Z,16.93
2022-11-20T11:05:25.362Z,10.97
2022-11-20T11:07:55.492Z,6.60
2022-11-20T11:10:26.539Z,8.13
2022-11-20T11:12:54.372Z,6.57
2022-11-20T11:15:31.307Z,6.90
2022-11-20T11:17:59.452Z,9.13
2022-11-20T11:20:28.282Z,9.17
2022-11-20T11:22:57.428Z,8.47
2022-11-20T11:25:28.523Z,7.57
2022-11-20T11:27:58.363Z,8.13
2022-11-20T11:30:27.983Z,10.07
2022-11-20T11:33:07.505Z,9.20
2022-11-20T11:35:35.665Z,9.00
2022-11-20T11:38:09.178Z,9.83
2022-11-20T11:40:38.484Z,8.17
2022-11-20T11:43:29.620Z,9.90
2022-11-20T11:45:58.763Z,8.33
2022-11-20T11:48:28.254Z,9.50
2022-11-20T11:50:56.552Z,10.00
2022-11-20T11:53:25.958Z,8.37
2022-11-20T11:55:58.052Z,10.47
2022-11-20T11:58:36.954Z,9.27
2022-11-20T12:01:09.526Z,9.03
2022-11-20T12:03:42.275Z,9.57
2022-11-20T12:06:13.623Z,10.33
2022-11-20T12:08:45.948Z,10.43
2022-11-20T12:11:15.484Z,8.70
2022-11-20T12:13:48.278Z,9.07
2022-11-20T12:16:17.360Z,9.77
2022-11-20T12:18:48.443Z,8.20
2022-11-20T12:21:30.432Z,6.97
2022-11-20T12:24:09.324Z,8.27
2022-11-20T12:26:48.077Z,7.63
2022-11-20T12:29:22.205Z,8.20
2022-11-20T12:32:16.999Z,7.60
2022-11-20T12:34:55.756Z,7.60
2022-11-20T12:37:32.922Z,9.37
2022-11-20T12:40:05.072Z,7.53
2022-11-20T12:43:11.413Z,9.33
2022-11-20T12:46:24.525Z,9.07
2022-11-20T12:49:23.521Z,8.07
2022-11-20T12:52:04.151Z,7.67
2022-11-20T12:54:58.987Z,9.40
2022-11-20T12:57:32.307Z,10.07
2022-11-20T13:00:09.523Z,11.43
2022-11-20T13:02:58.266Z,9.17
2022-11-20T13:05:30.795Z,10.07
2022-11-20T13:08:00.308Z,10.20
2022-11-20T13:10:33.975Z,10.83
2022-11-20T13:13:06.904Z,10.53
2022-11-20T13:15:52.946Z,9.67
2022-11-20T13:18:21.229Z,9.70
2022-11-20T13:20:49.207Z,12.47
2022-11-20T13:23:28.319Z,11.73
2022-11-20T13:26:07.538Z,10.30
2022-11-20T13:28:35.517Z,12.63
2022-11-20T13:31:03.479Z,12.10
2022-11-20T13:33:33.404Z,12.00
2022-11-20T13:36:03.151Z,11.17
2022-11-20T13:38:43.799Z,12.47
2022-11-20T13:41:25.650Z,12.43
2022-11-20T13:43:54.355Z,13.20
2022-11-20T13:46:25.658Z,13.50
2022-11-20T13:48:55.294Z,13.53
2022-11-20T13:51:32.027Z,13.80
2022-11-20T13:54:13.326Z,13.03
2022-11-20T13:56:50.842Z,13.93
2022-11-20T13:59:31.975Z,13.27
2022-11-20T14:02:00.052Z,14.20
2022-11-20T14:04:29.453Z,12.63
2022-11-20T14:06:57.542Z,13.33
2022-11-20T14:09:30.866Z,12.40
2022-11-20T14:11:59.058Z,14.67
2022-11-20T14:14:28.047Z,11.93
2022-11-20T14:17:07.627Z,12.43
2022-11-20T14:19:36.410Z,12.67
2022-11-20T14:22:18.673Z,14.53
2022-11-20T14:24:48.004Z,14.73
2022-11-20T14:27:18.084Z,14.37
2022-11-20T14:29:47.155Z,13.33
2022-11-20T14:32:17.638Z,14.23
2022-11-20T14:34:47.188Z,14.83
2022-11-20T14:37:19.627Z,12.50
2022-11-20T14:39:53.777Z,10.43
2022-11-20T14:42:22.993Z,13.47
2022-11-20T14:44:51.557Z,15.00
2022-11-20T14:47:23.426Z,14.67
2022-11-20T14:49:51.567Z,19.83
2022-11-20T14:52:21.033Z,13.97
2022-11-20T14:54:51.624Z,18.20
2022-11-20T14:57:28.008Z,13.20
2022-11-20T15:00:19.734Z,14.07
2022-11-20T15:02:48.792Z,20.67
2022-11-20T15:05:18.160Z,15.60
2022-11-20T15:07:47.664Z,14.17
2022-11-20T15:10:24.928Z,16.07
2022-11-20T15:12:54.704Z,15.63
2022-11-20T15:15:24.777Z,14.30
2022-11-20T15:17:52.760Z,14.23
2022-11-20T15:20:20.752Z,13.90
2022-11-20T15:22:48.606Z,15.63
2022-11-20T15:25:19.438Z,23.97
2022-11-20T15:27:48.038Z,15.47
2022-11-20T15:30:18.829Z,16.60
2022-11-20T15:32:47.406Z,17.90
2022-11-20T15:35:15.928Z,55.73
2022-11-20T15:37:44.031Z,17.63
2022-11-20T15:40:12.570Z,17.60
2022-11-20T15:43:02.576Z,14.77
2022-11-20T15:45:32.797Z,18.03
2022-11-20T15:48:00.975Z,17.20
2022-11-20T15:50:32.328Z,17.27
2022-11-20T15:53:00.434Z,16.00
2022-11-20T15:55:28.554Z,17.33
2022-11-20T15:57:57.690Z,19.30
2022-11-20T16:00:25.541Z,22.10
2022-11-20T16:02:53.432Z,20.07
2022-11-20T16:05:23.981Z,16.90
2022-11-20T16:07:52.503Z,17.90
2022-11-20T16:10:20.413Z,17.43
2022-11-20T16:13:06.073Z,19.47
2022-11-20T16:15:47.615Z,19.20
2022-11-20T16:18:18.478Z,19.47
2022-11-20T16:20:47.382Z,19.17
2022-11-20T16:23:16.402Z,19.40
2022-11-20T16:25:44.568Z,20.37
2022-11-20T16:28:18.466Z,21.53
2022-11-20T16:30:48.418Z,21.30
2022-11-20T16:33:18.014Z,21.13
2022-11-20T16:35:46.118Z,25.03
2022-11-20T16:38:13.984Z,20.47
2022-11-20T16:40:41.781Z,19.80
2022-11-20T16:43:11.690Z,22.53
2022-11-20T16:45:43.860Z,20.80
2022-11-20T16:48:15.517Z,24.33
2022-11-20T16:50:51.455Z,34.40
2022-11-20T16:53:19.810Z,31.30
2022-11-20T16:55:48.194Z,31.17
2022-11-20T16:58:16.485Z,30.07
2022-11-20T17:00:50.005Z,34.90
2022-11-20T17:03:21.057Z,34.53
2022-11-20T17:05:49.088Z,30.83
2022-11-20T17:08:16.921Z,26.07
2022-11-20T17:10:44.735Z,24.90
2022-11-20T17:13:12.722Z,25.57
2022-11-20T17:15:40.595Z,32.87
2022-11-20T17:18:08.832Z,29.97
2022-11-20T17:20:38.079Z,26.47
2022-11-20T17:23:05.912Z,26.53
2022-11-20T17:25:34.525Z,24.97
2022-11-20T17:28:02.394Z,23.13
2022-11-20T17:30:30.567Z,24.37
2022-11-20T17:32:58.448Z,23.20
2022-11-20T17:35:26.289Z,24.67
2022-11-20T17:37:55.669Z,24.37
2022-11-20T17:40:27.360Z,25.77
2022-11-20T17:42:56.106Z,27.13
2022-11-20T17:45:24.003Z,24.50
2022-11-20T17:47:51.761Z,26.03
2022-11-20T17:50:19.955Z,25.50
2022-11-20T17:52:48.093Z,24.83
2022-11-20T17:55:17.288Z,24.80
2022-11-20T17:57:52.911Z,25.90
2022-11-20T18:00:21.090Z,23.03
2022-11-20T18:02:49.209Z,24.07
2022-11-20T18:05:17.367Z,25.03
2022-11-20T18:07:45.352Z,25.47
2022-11-20T18:10:13.535Z,23.10
2022-11-20T18:12:43.900Z,23.90
2022-11-20T18:15:11.826Z,24.13
2022-11-20T18:17:39.731Z,23.43
2022-11-20T18:22:57.352Z,22.00
2022-11-20T18:25:25.318Z,20.47
2022-11-20T18:27:54.578Z,21.60
2022-11-20T18:30:22.868Z,22.73
2022-11-20T18:32:51.021Z,23.17
2022-11-20T18:35:18.901Z,20.00
2022-11-20T18:37:46.810Z,23.57
2022-11-20T18:40:15.185Z,23.77
2022-11-20T18:43:00.269Z,24.30
2022-11-20T18:45:30.356Z,24.83
2022-11-20T18:47:58.185Z,24.37
2022-11-20T18:50:26.017Z,22.43
2022-11-20T18:52:53.977Z,24.43
2022-11-20T18:55:25.021Z,20.70
2022-11-20T18:57:54.264Z,21.87
2022-11-20T19:00:22.552Z,17.47
2022-11-20T19:02:54.585Z,20.40
2022-11-20T19:05:22.465Z,17.40
2022-11-20T19:07:50.361Z,16.10
2022-11-20T19:10:20.201Z,17.57
2022-11-20T19:12:48.259Z,17.03
2022-11-20T19:15:16.136Z,15.30
2022-11-20T19:17:43.985Z,15.00
2022-11-20T19:20:13.647Z,16.77
2022-11-20T19:22:41.509Z,14.53
2022-11-20T19:25:10.053Z,12.73
2022-11-20T19:27:38.402Z,14.40
2022-11-20T19:30:07.114Z,14.37
2022-11-20T19:32:35.316Z,14.57
2022-11-20T19:35:03.586Z,13.53
2022-11-20T19:37:35.640Z,12.83
2022-11-20T19:40:05.295Z,13.80
2022-11-20T19:42:33.291Z,13.00
2022-11-20T19:45:01.157Z,10.43
2022-11-20T19:47:52.654Z,9.17
2022-11-20T19:50:17.308Z,9.47
2022-11-20T19:52:46.603Z,12.57
2022-11-20T19:55:14.610Z,8.47
2022-11-20T19:57:42.496Z,8.97
2022-11-20T20:00:12.353Z,8.33
2022-11-20T20:02:40.264Z,7.80
2022-11-20T20:05:08.831Z,7.50
2022-11-20T20:07:36.714Z,8.77
2022-11-20T20:10:07.013Z,5.10
2022-11-20T20:12:34.861Z,6.57
2022-11-20T20:15:02.735Z,5.00
2022-11-20T20:17:30.672Z,7.47
2022-11-20T20:19:58.461Z,6.73
2022-11-20T20:22:26.403Z,7.53
2022-11-20T20:24:54.250Z,9.03
2022-11-20T20:27:23.477Z,10.63
2022-11-20T20:29:51.336Z,8.63
2022-11-20T20:32:19.292Z,6.10
2022-11-20T20:34:47.108Z,8.60
2022-11-20T20:37:14.960Z,5.47
2022-11-20T20:39:42.881Z,7.77
2022-11-20T20:42:10.673Z,5.57
2022-11-20T20:44:57.370Z,7.07
2022-11-20T20:47:25.285Z,8.57
2022-11-20T20:49:53.223Z,7.40
2022-11-20T20:52:21.579Z,8.13
2022-11-20T20:54:49.503Z,7.90
2022-11-20T20:57:17.386Z,10.30
2022-11-20T20:59:46.672Z,15.17
2022-11-20T21:02:14.523Z,19.43
2022-11-20T21:04:42.402Z,17.60
2022-11-20T21:07:10.882Z,20.80
2022-11-20T21:09:38.936Z,23.03
2022-11-20T21:12:07.027Z,27.00
2022-11-20T21:14:34.968Z,25.70
2022-11-20T21:17:04.171Z,24.03
2022-11-20T21:19:33.257Z,25.27
2022-11-20T21:22:00.161Z,22.50
2022-11-20T21:24:28.983Z,23.03
2022-11-20T21:26:58.014Z,27.80
2022-11-20T21:29:26.977Z,24.00
2022-11-20T21:31:55.452Z,21.73
2022-11-20T21:34:25.508Z,21.30
2022-11-20T21:36:53.540Z,20.63
2022-11-20T21:39:22.856Z,21.87
2022-11-20T21:41:50.751Z,21.10
2022-11-20T21:44:33.817Z,18.90
2022-11-20T21:47:01.616Z,16.93
2022-11-20T21:49:30.891Z,18.63
2022-11-20T21:51:59.076Z,22.40
2022-11-20T21:54:27.084Z,17.83
2022-11-20T21:56:55.004Z,23.70
2022-11-20T21:59:23.237Z,18.17
2022-11-20T22:01:51.165Z,19.27
2022-11-20T22:04:20.009Z,19.10
2022-11-20T22:06:49.556Z,19.47
2022-11-20T22:09:17.396Z,19.27
2022-11-20T22:11:45.213Z,18.80
2022-11-20T22:14:21.155Z,19.87
2022-11-20T22:16:50.171Z,20.80
2022-11-20T22:19:19.103Z,19.73
2022-11-20T22:21:47.095Z,17.87
2022-11-20T22:24:18.861Z,18.63
2022-11-20T22:26:46.750Z,19.30
2022-11-20T22:29:16.122Z,15.17
2022-11-20T22:31:43.920Z,17.97
2022-11-20T22:34:13.024Z,17.20
2022-11-20T22:36:41.404Z,17.17
2022-11-20T22:39:09.629Z,16.63
2022-11-20T22:41:38.864Z,17.20
2022-11-20T22:44:08.571Z,18.27
2022-11-20T22:46:37.881Z,19.80
2022-11-20T22:49:07.525Z,21.40
2022-11-20T22:51:36.516Z,20.67
2022-11-20T22:54:04.804Z,21.37
2022-11-20T22:56:32.904Z,24.77
2022-11-20T22:59:02.206Z,28.10
2022-11-20T23:01:30.956Z,27.23
2022-11-20T23:04:00.290Z,25.77
2022-11-20T23:06:28.950Z,23.50
2022-11-20T23:08:57.243Z,24.50
2022-11-20T23:11:27.158Z,20.80
2022-11-20T23:13:58.008Z,19.00
2022-11-20T23:16:29.089Z,21.73
2022-11-20T23:18:58.252Z,20.20
2022-11-20T23:21:26.710Z,19.57
2022-11-20T23:23:55.983Z,21.77
2022-11-20T23:26:25.261Z,22.33
2022-11-20T23:28:54.622Z,20.60
2022-11-20T23:31:22.978Z,21.10
2022-11-20T23:33:52.516Z,19.43
2022-11-20T23:36:20.546Z,21.80
2022-11-20T23:38:48.427Z,22.53
2022-11-20T23:41:16.369Z,21.07
2022-11-20T23:43:44.290Z,21.73
2022-11-20T23:46:16.299Z,22.27
2022-11-20T23:48:45.860Z,24.97
2022-11-20T23:51:15.572Z,20.37
2022-11-20T23:53:43.459Z,23.73
2022-11-20T23:56:12.207Z,22.10
2022-11-20T23:58:40.489Z,22.13
